createdAt,value
2023-02-16T00:00:07.961Z,32.49
2023-02-16T00:01:08.016Z,32.47
2023-02-16T00:02:07.132Z,32.47
2023-02-16T00:03:08.205Z,32.44
2023-02-16T00:04:08.223Z,32.48
2023-02-16T00:05:08.457Z,32.44
2023-02-16T00:06:08.611Z,32.44
2023-02-16T00:07:08.474Z,32.45
2023-02-16T00:08:08.618Z,32.44
2023-02-16T00:09:08.934Z,32.42
2023-02-16T00:10:07.878Z,32.41
2023-02-16T00:11:08.822Z,32.39
2023-02-16T00:12:08.742Z,32.42
2023-02-16T00:13:08.777Z,32.46
2023-02-16T00:14:08.987Z,32.45
2023-02-16T00:15:08.939Z,32.43
2023-02-16T00:16:09.163Z,32.44
2023-02-16T00:17:09.256Z,32.42
2023-02-16T00:18:09.233Z,32.42
2023-02-16T00:19:09.357Z,32.41
2023-02-16T00:20:09.303Z,32.39
2023-02-16T00:21:09.415Z,32.41
2023-02-16T00:22:08.498Z,32.45
2023-02-16T00:23:08.841Z,32.41
2023-02-16T00:24:09.543Z,32.43
2023-02-16T00:25:09.534Z,32.44
2023-02-16T00:26:09.648Z,32.45
2023-02-16T00:27:09.668Z,32.43
2023-02-16T00:28:08.733Z,32.39
2023-02-16T00:29:09.802Z,32.45
2023-02-16T00:30:09.933Z,32.41
2023-02-16T00:31:08.984Z,32.40
2023-02-16T00:32:10.168Z,32.43
2023-02-16T00:33:10.022Z,32.44
2023-02-16T00:34:09.086Z,32.41
2023-02-16T00:35:09.132Z,32.43
2023-02-16T00:36:10.181Z,32.43
2023-02-16T00:37:10.239Z,32.44
2023-02-16T00:38:10.339Z,32.42
2023-02-16T00:39:10.356Z,32.41
2023-02-16T00:40:10.432Z,32.39
2023-02-16T00:41:10.470Z,32.40
2023-02-16T00:42:09.556Z,32.43
2023-02-16T00:43:10.599Z,32.40
2023-02-16T00:44:10.678Z,32.44
2023-02-16T00:45:09.764Z,32.43
2023-02-16T00:46:09.886Z,32.43
2023-02-16T00:47:09.849Z,32.42
2023-02-16T00:48:10.914Z,32.43
2023-02-16T00:49:10.996Z,32.40
2023-02-16T00:50:11.031Z,32.43
2023-02-16T00:51:24.943Z,32.45
2023-02-16T00:52:11.101Z,32.43
2023-02-16T00:53:11.088Z,32.45
2023-02-16T00:54:11.110Z,32.42
2023-02-16T00:55:10.184Z,32.44
2023-02-16T00:56:11.060Z,32.40
2023-02-16T00:57:11.529Z,32.41
2023-02-16T00:58:11.192Z,32.42
2023-02-16T00:59:10.179Z,32.42
2023-02-16T01:00:11.389Z,32.42
2023-02-16T01:01:11.239Z,32.41
2023-02-16T01:02:10.051Z,32.43
2023-02-16T01:03:10.111Z,32.46
2023-02-16T01:04:11.379Z,32.45
2023-02-16T01:05:11.135Z,32.41
2023-02-16T01:06:11.417Z,32.41
2023-02-16T01:07:11.025Z,32.38
2023-02-16T01:08:11.048Z,32.40
2023-02-16T01:09:11.095Z,32.38
2023-02-16T01:10:10.988Z,32.41
2023-02-16T01:11:10.975Z,32.39
2023-02-16T01:12:09.971Z,32.38
2023-02-16T01:13:11.112Z,32.40
2023-02-16T01:14:10.000Z,32.41
2023-02-16T01:15:09.956Z,32.39
2023-02-16T01:16:11.004Z,32.41
2023-02-16T01:17:10.930Z,32.43
2023-02-16T01:18:11.003Z,32.41
2023-02-16T01:19:09.916Z,32.43
2023-02-16T01:20:11.007Z,32.41
2023-02-16T01:21:11.052Z,32.40
2023-02-16T01:22:11.108Z,32.37
2023-02-16T01:23:11.172Z,32.38
2023-02-16T01:24:11.240Z,32.37
2023-02-16T01:25:11.287Z,32.37
2023-02-16T01:26:11.370Z,32.37
2023-02-16T01:27:11.404Z,32.39
2023-02-16T01:28:10.468Z,32.37
2023-02-16T01:29:11.534Z,32.39
2023-02-16T01:30:10.738Z,32.37
2023-02-16T01:31:11.791Z,32.39
2023-02-16T01:32:11.940Z,32.40
2023-02-16T01:33:11.823Z,32.40
2023-02-16T01:34:10.852Z,32.38
2023-02-16T01:35:12.060Z,32.39
2023-02-16T01:36:12.006Z,32.39
2023-02-16T01:37:11.036Z,32.35
2023-02-16T01:38:12.096Z,32.34
2023-02-16T01:39:11.139Z,32.37
2023-02-16T01:40:12.206Z,32.39
2023-02-16T01:41:12.281Z,32.40
2023-02-16T01:42:11.348Z,32.40
2023-02-16T01:43:12.403Z,32.39
2023-02-16T01:44:11.468Z,32.37
2023-02-16T01:45:11.537Z,32.37
2023-02-16T01:46:12.694Z,32.40
2023-02-16T01:47:12.662Z,32.39
2023-02-16T01:48:12.758Z,32.35
2023-02-16T01:49:12.814Z,32.38
2023-02-16T01:50:11.942Z,32.36
2023-02-16T01:51:12.902Z,32.37
2023-02-16T01:52:12.958Z,32.36
2023-02-16T01:53:12.050Z,32.35
2023-02-16T01:54:13.112Z,32.36
2023-02-16T01:55:12.128Z,32.37
2023-02-16T01:56:12.148Z,32.36
2023-02-16T01:57:12.190Z,32.36
2023-02-16T01:58:13.231Z,32.35
2023-02-16T01:59:12.285Z,32.38
2023-02-16T02:00:13.356Z,32.39
2023-02-16T02:01:13.368Z,32.39
2023-02-16T02:02:12.410Z,32.35
2023-02-16T02:03:13.412Z,32.35
2023-02-16T02:04:13.451Z,32.33
2023-02-16T02:05:13.546Z,32.34
2023-02-16T02:06:12.554Z,32.34
2023-02-16T02:07:12.600Z,32.36
2023-02-16T02:08:12.651Z,32.34
2023-02-16T02:09:13.709Z,32.34
2023-02-16T02:10:13.810Z,32.34
2023-02-16T02:11:14.341Z,32.35
2023-02-16T02:12:13.905Z,32.39
2023-02-16T02:13:13.918Z,32.39
2023-02-16T02:14:12.933Z,32.37
2023-02-16T02:15:13.452Z,32.33
2023-02-16T02:16:14.616Z,32.30
2023-02-16T02:17:14.046Z,32.32
2023-02-16T02:18:14.152Z,32.31
2023-02-16T02:19:13.227Z,32.33
2023-02-16T02:20:14.140Z,32.33
2023-02-16T02:21:14.463Z,32.36
2023-02-16T02:22:13.257Z,32.35
2023-02-16T02:23:14.369Z,32.39
2023-02-16T02:24:16.367Z,32.37
2023-02-16T02:25:14.239Z,32.35
2023-02-16T02:26:13.358Z,32.35
2023-02-16T02:27:13.736Z,32.36
2023-02-16T02:28:14.244Z,32.34
2023-02-16T02:29:13.396Z,32.34
2023-02-16T02:30:13.402Z,32.35
2023-02-16T02:31:13.681Z,32.37
2023-02-16T02:32:13.347Z,32.34
2023-02-16T02:33:13.655Z,32.31
2023-02-16T02:34:14.278Z,32.33
2023-02-16T02:35:13.159Z,32.33
2023-02-16T02:36:14.163Z,32.31
2023-02-16T02:37:14.170Z,32.31
2023-02-16T02:38:14.163Z,32.31
2023-02-16T02:39:14.145Z,32.31
2023-02-16T02:40:14.137Z,32.31
2023-02-16T02:41:14.130Z,32.30
2023-02-16T02:42:13.163Z,32.32
2023-02-16T02:43:14.123Z,32.31
2023-02-16T02:44:14.109Z,32.31
2023-02-16T02:45:14.108Z,32.33
2023-02-16T02:46:14.141Z,32.34
2023-02-16T02:47:14.093Z,32.32
2023-02-16T02:48:14.089Z,32.31
2023-02-16T02:49:14.094Z,32.35
2023-02-16T02:50:13.073Z,32.33
2023-02-16T02:51:13.073Z,32.31
2023-02-16T02:52:14.066Z,32.31
2023-02-16T02:53:14.199Z,32.32
2023-02-16T02:54:14.072Z,32.33
2023-02-16T02:55:14.125Z,32.32
2023-02-16T02:56:14.165Z,32.32
2023-02-16T02:57:14.219Z,32.31
2023-02-16T02:58:14.281Z,32.32
2023-02-16T02:59:14.273Z,32.32
2023-02-16T03:00:14.288Z,32.33
2023-02-16T03:01:13.357Z,32.33
2023-02-16T03:02:14.322Z,32.33
2023-02-16T03:03:14.318Z,32.32
2023-02-16T03:04:14.312Z,32.30
2023-02-16T03:05:14.345Z,32.32
2023-02-16T03:06:14.338Z,32.33
2023-02-16T03:07:14.468Z,32.31
2023-02-16T03:08:13.372Z,32.31
2023-02-16T03:09:14.408Z,32.30
2023-02-16T03:10:14.428Z,32.30
2023-02-16T03:11:14.470Z,32.32
2023-02-16T03:12:14.489Z,32.32
2023-02-16T03:13:14.490Z,32.31
2023-02-16T03:14:13.509Z,32.33
2023-02-16T03:15:14.489Z,32.28
2023-02-16T03:16:13.555Z,32.31
2023-02-16T03:17:13.524Z,32.27
2023-02-16T03:18:14.533Z,32.28
2023-02-16T03:19:14.567Z,32.30
2023-02-16T03:20:14.536Z,32.30
2023-02-16T03:21:14.591Z,32.30
2023-02-16T03:22:14.579Z,32.32
2023-02-16T03:23:13.591Z,32.31
2023-02-16T03:24:13.598Z,32.30
2023-02-16T03:25:14.615Z,32.28
2023-02-16T03:26:14.625Z,32.27
2023-02-16T03:27:13.650Z,32.30
2023-02-16T03:28:14.674Z,32.29
2023-02-16T03:29:13.703Z,32.28
2023-02-16T03:30:14.794Z,32.30
2023-02-16T03:31:14.910Z,32.30
2023-02-16T03:32:15.004Z,32.31
2023-02-16T03:33:14.858Z,32.30
2023-02-16T03:34:14.926Z,32.27
2023-02-16T03:35:14.917Z,32.25
2023-02-16T03:36:14.954Z,32.26
2023-02-16T03:37:14.972Z,32.28
2023-02-16T03:38:15.010Z,32.27
2023-02-16T03:39:15.042Z,32.29
2023-02-16T03:40:15.088Z,32.30
2023-02-16T03:41:15.148Z,32.28
2023-02-16T03:42:15.174Z,32.26
2023-02-16T03:43:15.185Z,32.30
2023-02-16T03:44:15.217Z,32.30
2023-02-16T03:45:14.936Z,32.26
2023-02-16T03:46:14.376Z,32.29
2023-02-16T03:47:15.357Z,32.27
2023-02-16T03:48:15.269Z,32.31
2023-02-16T03:49:15.270Z,32.29
2023-02-16T03:50:15.260Z,32.26
2023-02-16T03:51:15.249Z,32.25
2023-02-16T03:52:15.256Z,32.25
2023-02-16T03:53:17.915Z,32.26
2023-02-16T03:54:15.242Z,32.26
2023-02-16T03:55:14.243Z,32.26
2023-02-16T03:56:15.233Z,32.26
2023-02-16T03:57:15.252Z,32.27
2023-02-16T03:58:15.256Z,32.27
2023-02-16T03:59:15.258Z,32.27
2023-02-16T04:00:15.220Z,32.30
2023-02-16T04:01:15.202Z,32.30
2023-02-16T04:02:14.269Z,32.29
2023-02-16T04:03:14.206Z,32.26
2023-02-16T04:04:15.201Z,32.28
2023-02-16T04:05:15.170Z,32.27
2023-02-16T04:06:15.158Z,32.28
2023-02-16T04:07:14.175Z,32.26
2023-02-16T04:08:14.178Z,32.28
2023-02-16T04:09:15.139Z,32.27
2023-02-16T04:10:14.145Z,32.26
2023-02-16T04:11:15.148Z,32.26
2023-02-16T04:12:14.135Z,32.29
2023-02-16T04:13:15.152Z,32.26
2023-02-16T04:14:14.144Z,32.24
2023-02-16T04:15:15.141Z,32.24
2023-02-16T04:16:14.130Z,32.26
2023-02-16T04:17:14.115Z,32.26
2023-02-16T04:18:15.120Z,32.26
2023-02-16T04:19:14.144Z,32.27
2023-02-16T04:20:15.081Z,32.28
2023-02-16T04:21:14.074Z,32.26
2023-02-16T04:22:15.094Z,32.27
2023-02-16T04:23:15.071Z,32.25
2023-02-16T04:24:15.061Z,32.26
2023-02-16T04:25:15.062Z,32.24
2023-02-16T04:26:14.093Z,32.24
2023-02-16T04:27:15.333Z,32.25
2023-02-16T04:28:15.221Z,32.26
2023-02-16T04:29:15.421Z,32.25
2023-02-16T04:30:14.067Z,32.25
2023-02-16T04:31:15.381Z,32.26
2023-02-16T04:32:15.120Z,32.25
2023-02-16T04:33:15.120Z,32.26
2023-02-16T04:34:15.183Z,32.24
2023-02-16T04:35:14.228Z,32.22
2023-02-16T04:36:15.013Z,32.22
2023-02-16T04:37:15.120Z,32.23
2023-02-16T04:38:15.330Z,32.23
2023-02-16T04:39:15.195Z,32.23
2023-02-16T04:40:14.979Z,32.23
2023-02-16T04:41:15.148Z,32.24
2023-02-16T04:42:15.352Z,32.27
2023-02-16T04:43:15.070Z,32.23
2023-02-16T04:44:15.003Z,32.22
2023-02-16T04:45:15.095Z,32.24
2023-02-16T04:46:13.961Z,32.24
2023-02-16T04:47:14.937Z,32.23
2023-02-16T04:48:14.899Z,32.25
2023-02-16T04:49:14.889Z,32.27
2023-02-16T04:50:14.886Z,32.23
2023-02-16T04:51:13.874Z,32.25
2023-02-16T04:52:13.871Z,32.30
2023-02-16T04:53:14.878Z,32.24
2023-02-16T04:54:13.840Z,32.24
2023-02-16T04:55:14.855Z,32.24
2023-02-16T04:56:14.826Z,32.22
2023-02-16T04:57:14.876Z,32.21
2023-02-16T04:58:13.836Z,32.23
2023-02-16T04:59:14.824Z,32.24
2023-02-16T05:00:14.844Z,32.24
2023-02-16T05:01:15.195Z,32.22
2023-02-16T05:02:14.974Z,32.22
2023-02-16T05:03:14.946Z,32.24
2023-02-16T05:04:14.122Z,32.24
2023-02-16T05:05:14.835Z,32.23
2023-02-16T05:06:13.844Z,32.23
2023-02-16T05:07:13.780Z,32.25
2023-02-16T05:08:14.901Z,32.23
2023-02-16T05:09:14.922Z,32.27
2023-02-16T05:10:13.765Z,32.23
2023-02-16T05:11:13.884Z,32.25
2023-02-16T05:12:14.015Z,32.24
2023-02-16T05:13:14.861Z,32.21
2023-02-16T05:14:14.726Z,32.23
2023-02-16T05:15:14.833Z,32.22
2023-02-16T05:16:15.462Z,32.23
2023-02-16T05:17:14.930Z,32.23
2023-02-16T05:18:14.765Z,32.25
2023-02-16T05:19:14.749Z,32.23
2023-02-16T05:20:13.793Z,32.26
2023-02-16T05:21:14.669Z,32.22
2023-02-16T05:22:14.721Z,32.21
2023-02-16T05:23:14.658Z,32.21
2023-02-16T05:24:14.677Z,32.20
2023-02-16T05:25:14.665Z,32.21
2023-02-16T05:26:14.695Z,32.23
2023-02-16T05:27:14.764Z,32.23
2023-02-16T05:28:14.751Z,32.23
2023-02-16T05:29:14.678Z,32.21
2023-02-16T05:30:14.746Z,32.22
2023-02-16T05:31:14.809Z,32.23
2023-02-16T05:32:13.792Z,32.20
2023-02-16T05:33:14.710Z,32.20
2023-02-16T05:34:14.686Z,32.20
2023-02-16T05:35:13.730Z,32.17
2023-02-16T05:36:14.697Z,32.22
2023-02-16T05:37:14.819Z,32.19
2023-02-16T05:38:14.718Z,32.20
2023-02-16T05:39:14.756Z,32.21
2023-02-16T05:40:14.742Z,32.19
2023-02-16T05:41:14.742Z,32.20
2023-02-16T05:42:14.852Z,32.21
2023-02-16T05:43:15.045Z,32.20
2023-02-16T05:44:14.795Z,32.21
2023-02-16T05:45:13.787Z,32.21
2023-02-16T05:46:14.903Z,32.21
2023-02-16T05:47:14.814Z,32.21
2023-02-16T05:48:13.795Z,32.21
2023-02-16T05:49:13.921Z,32.22
2023-02-16T05:50:14.808Z,32.22
2023-02-16T05:51:13.816Z,32.21
2023-02-16T05:52:13.951Z,32.23
2023-02-16T05:53:14.982Z,32.20
2023-02-16T05:54:14.998Z,32.20
2023-02-16T05:55:14.222Z,32.20
2023-02-16T05:56:14.902Z,32.21
2023-02-16T05:57:15.159Z,32.21
2023-02-16T05:58:13.976Z,32.21
2023-02-16T05:59:13.916Z,32.21
2023-02-16T06:00:14.941Z,32.20
2023-02-16T06:01:13.988Z,32.21
2023-02-16T06:02:13.962Z,32.19
2023-02-16T06:03:14.939Z,32.20
2023-02-16T06:04:14.988Z,32.22
2023-02-16T06:05:15.083Z,32.21
2023-02-16T06:06:15.014Z,32.21
2023-02-16T06:07:15.334Z,32.22
2023-02-16T06:08:14.368Z,32.19
2023-02-16T06:09:15.056Z,32.21
2023-02-16T06:10:14.277Z,32.21
2023-02-16T06:11:15.184Z,32.19
2023-02-16T06:12:14.976Z,32.19
2023-02-16T06:13:14.008Z,32.19
2023-02-16T06:14:13.994Z,32.21
2023-02-16T06:15:14.021Z,32.21
2023-02-16T06:16:15.071Z,32.20
2023-02-16T06:17:15.017Z,32.20
2023-02-16T06:18:14.039Z,32.19
2023-02-16T06:19:15.059Z,32.21
2023-02-16T06:20:15.000Z,32.17
2023-02-16T06:21:15.150Z,32.19
2023-02-16T06:22:15.016Z,32.20
2023-02-16T06:23:15.016Z,32.18
2023-02-16T06:24:15.065Z,32.18
2023-02-16T06:25:14.002Z,32.19
2023-02-16T06:26:14.014Z,32.19
2023-02-16T06:27:15.009Z,32.22
2023-02-16T06:28:15.025Z,32.21
2023-02-16T06:29:14.062Z,32.23
2023-02-16T06:30:14.113Z,32.21
2023-02-16T06:31:14.197Z,32.20
2023-02-16T06:32:14.236Z,32.18
2023-02-16T06:33:14.110Z,32.18
2023-02-16T06:34:15.074Z,32.18
2023-02-16T06:35:15.071Z,32.17
2023-02-16T06:36:14.069Z,32.21
2023-02-16T06:37:15.121Z,32.19
2023-02-16T06:38:14.585Z,32.18
2023-02-16T06:39:14.090Z,32.17
2023-02-16T06:40:15.080Z,32.17
2023-02-16T06:41:15.081Z,32.18
2023-02-16T06:42:15.062Z,32.17
2023-02-16T06:43:15.119Z,32.16
2023-02-16T06:44:14.057Z,32.19
2023-02-16T06:45:14.098Z,32.17
2023-02-16T06:46:14.131Z,32.18
2023-02-16T06:47:15.047Z,32.18
2023-02-16T06:48:15.122Z,32.16
2023-02-16T06:49:15.102Z,32.19
2023-02-16T06:50:15.065Z,32.17
2023-02-16T06:51:15.051Z,32.19
2023-02-16T06:52:15.044Z,32.18
2023-02-16T06:53:15.118Z,32.20
2023-02-16T06:54:15.058Z,32.18
2023-02-16T06:55:14.082Z,32.18
2023-02-16T06:56:15.065Z,32.16
2023-02-16T06:57:15.055Z,32.17
2023-02-16T06:58:15.087Z,32.20
2023-02-16T06:59:14.121Z,32.19
2023-02-16T07:00:14.080Z,32.18
2023-02-16T07:01:15.179Z,32.17
2023-02-16T07:02:15.093Z,32.16
2023-02-16T07:03:15.241Z,32.20
2023-02-16T07:04:14.170Z,32.17
2023-02-16T07:05:14.124Z,32.16
2023-02-16T07:06:15.151Z,32.16
2023-02-16T07:07:14.155Z,32.17
2023-02-16T07:08:15.249Z,32.19
2023-02-16T07:09:15.201Z,32.18
2023-02-16T07:10:15.184Z,32.17
2023-02-16T07:11:15.196Z,32.17
2023-02-16T07:12:15.475Z,32.16
2023-02-16T07:13:15.307Z,32.16
2023-02-16T07:14:15.299Z,32.17
2023-02-16T07:15:15.306Z,32.16
2023-02-16T07:16:15.375Z,32.16
2023-02-16T07:17:15.418Z,32.17
2023-02-16T07:18:15.617Z,32.14
2023-02-16T07:19:14.437Z,32.13
2023-02-16T07:20:15.382Z,32.17
2023-02-16T07:21:15.472Z,32.16
2023-02-16T07:22:15.609Z,32.19
2023-02-16T07:23:15.521Z,32.15
2023-02-16T07:24:15.652Z,32.17
2023-02-16T07:25:14.633Z,32.16
2023-02-16T07:26:14.815Z,32.12
2023-02-16T07:27:15.793Z,32.13
2023-02-16T07:28:15.723Z,32.15
2023-02-16T07:29:15.741Z,32.15
2023-02-16T07:30:15.860Z,32.14
2023-02-16T07:31:15.860Z,32.16
2023-02-16T07:32:15.700Z,32.14
2023-02-16T07:33:15.712Z,32.15
2023-02-16T07:34:14.716Z,32.11
2023-02-16T07:35:15.755Z,32.15
2023-02-16T07:36:15.744Z,32.15
2023-02-16T07:37:15.760Z,32.14
2023-02-16T07:38:15.806Z,32.13
2023-02-16T07:39:15.760Z,32.12
2023-02-16T07:40:15.773Z,32.12
2023-02-16T07:41:15.802Z,32.15
2023-02-16T07:42:15.775Z,32.15
2023-02-16T07:43:14.788Z,32.10
2023-02-16T07:44:15.804Z,32.11
2023-02-16T07:45:14.827Z,32.11
2023-02-16T07:46:15.885Z,32.11
2023-02-16T07:47:15.814Z,32.14
2023-02-16T07:48:15.819Z,32.12
2023-02-16T07:49:15.821Z,32.10
2023-02-16T07:50:14.850Z,32.15
2023-02-16T07:51:15.864Z,32.10
2023-02-16T07:52:15.858Z,32.13
2023-02-16T07:53:14.877Z,32.14
2023-02-16T07:54:15.889Z,32.13
2023-02-16T07:55:15.897Z,32.19
2023-02-16T07:56:15.927Z,32.18
2023-02-16T07:57:16.004Z,32.16
2023-02-16T07:58:15.942Z,32.17
2023-02-16T07:59:14.963Z,32.14
2023-02-16T08:00:15.985Z,32.16
2023-02-16T08:01:16.118Z,32.15
2023-02-16T08:02:16.186Z,32.17
2023-02-16T08:03:16.199Z,32.17
2023-02-16T08:04:15.075Z,32.17
2023-02-16T08:05:16.038Z,32.16
2023-02-16T08:06:16.027Z,32.16
2023-02-16T08:07:15.038Z,32.17
2023-02-16T08:08:16.098Z,32.20
2023-02-16T08:09:16.122Z,32.23
2023-02-16T08:10:16.084Z,32.18
2023-02-16T08:11:16.095Z,32.17
2023-02-16T08:12:16.103Z,32.16
2023-02-16T08:13:16.159Z,32.21
2023-02-16T08:14:16.189Z,32.15
2023-02-16T08:15:16.112Z,32.17
2023-02-16T08:16:16.231Z,32.21
2023-02-16T08:17:16.147Z,32.19
2023-02-16T08:18:16.138Z,32.18
2023-02-16T08:19:15.157Z,32.15
2023-02-16T08:20:15.166Z,32.13
2023-02-16T08:21:16.175Z,32.16
2023-02-16T08:22:16.161Z,32.14
2023-02-16T08:23:16.180Z,32.14
2023-02-16T08:24:16.185Z,32.16
2023-02-16T08:25:15.175Z,32.16
2023-02-16T08:26:15.168Z,32.12
2023-02-16T08:27:16.193Z,32.12
2023-02-16T08:28:16.172Z,32.09
2023-02-16T08:29:16.213Z,32.12
2023-02-16T08:30:16.244Z,32.11
2023-02-16T08:31:16.246Z,32.10
2023-02-16T08:32:16.213Z,32.10
2023-02-16T08:33:16.230Z,32.09
2023-02-16T08:34:16.190Z,32.08
2023-02-16T08:35:15.160Z,32.05
2023-02-16T08:36:16.164Z,32.04
2023-02-16T08:37:16.708Z,32.04
2023-02-16T08:38:16.176Z,32.02
2023-02-16T08:39:16.198Z,32.03
2023-02-16T08:40:16.194Z,32.03
2023-02-16T08:41:16.213Z,32.03
2023-02-16T08:42:16.218Z,32.00
2023-02-16T08:43:16.242Z,32.04
2023-02-16T08:44:16.444Z,32.02
2023-02-16T08:45:16.312Z,32.01
2023-02-16T08:46:16.353Z,32.04
2023-02-16T08:47:16.323Z,32.02
2023-02-16T08:48:15.338Z,32.03
2023-02-16T08:49:16.382Z,32.03
2023-02-16T08:50:16.363Z,32.02
2023-02-16T08:51:16.394Z,32.01
2023-02-16T08:52:15.422Z,32.00
2023-02-16T08:53:16.476Z,31.97
2023-02-16T08:54:15.512Z,31.96
2023-02-16T08:55:16.561Z,31.96
2023-02-16T08:56:16.711Z,31.94
2023-02-16T08:57:16.665Z,31.95
2023-02-16T08:58:15.710Z,31.95
2023-02-16T08:59:16.760Z,31.92
2023-02-16T09:00:16.814Z,31.91
2023-02-16T09:01:16.900Z,31.90
2023-02-16T09:02:16.815Z,31.90
2023-02-16T09:03:16.890Z,31.89
2023-02-16T09:04:15.902Z,31.87
2023-02-16T09:05:17.016Z,31.84
2023-02-16T09:06:17.067Z,31.83
2023-02-16T09:07:17.081Z,31.79
2023-02-16T09:08:17.151Z,31.81
2023-02-16T09:09:16.221Z,31.81
2023-02-16T09:10:16.279Z,31.79
2023-02-16T09:11:17.395Z,31.78
2023-02-16T09:12:17.966Z,31.74
2023-02-16T09:13:17.456Z,31.74
2023-02-16T09:14:17.517Z,31.76
2023-02-16T09:15:17.599Z,31.72
2023-02-16T09:16:17.655Z,31.71
2023-02-16T09:17:17.755Z,31.71
2023-02-16T09:18:16.769Z,31.69
2023-02-16T09:19:16.833Z,31.71
2023-02-16T09:20:17.879Z,31.70
2023-02-16T09:21:17.947Z,31.70
2023-02-16T09:22:17.021Z,31.70
2023-02-16T09:23:18.062Z,31.72
2023-02-16T09:24:18.176Z,31.69
2023-02-16T09:25:18.201Z,31.70
2023-02-16T09:26:18.248Z,31.70
2023-02-16T09:27:17.304Z,31.66
2023-02-16T09:28:18.346Z,31.70
2023-02-16T09:29:17.410Z,31.70
2023-02-16T09:30:18.510Z,31.69
2023-02-16T09:31:18.650Z,31.70
2023-02-16T09:32:19.595Z,31.68
2023-02-16T09:33:18.744Z,31.70
2023-02-16T09:34:18.685Z,31.69
2023-02-16T09:35:17.754Z,31.69
2023-02-16T09:36:17.790Z,31.67
2023-02-16T09:37:18.883Z,31.66
2023-02-16T09:38:18.939Z,31.63
2023-02-16T09:39:17.988Z,31.65
2023-02-16T09:40:18.079Z,31.65
2023-02-16T09:41:19.086Z,31.67
2023-02-16T09:42:19.127Z,31.66
2023-02-16T09:43:19.179Z,31.65
2023-02-16T09:44:19.245Z,31.63
2023-02-16T09:45:19.316Z,31.66
2023-02-16T09:46:22.154Z,31.64
2023-02-16T09:47:18.340Z,31.67
2023-02-16T09:48:19.326Z,31.65
2023-02-16T09:49:19.350Z,31.65
2023-02-16T09:50:27.744Z,31.64
2023-02-16T09:51:20.967Z,31.66
2023-02-16T09:52:18.301Z,31.66
2023-02-16T09:53:19.295Z,31.66
2023-02-16T09:54:19.280Z,31.65
2023-02-16T09:55:19.302Z,31.63
2023-02-16T09:56:18.269Z,31.63
2023-02-16T09:57:19.308Z,31.65
2023-02-16T09:58:19.280Z,31.66
2023-02-16T09:59:19.327Z,31.62
2023-02-16T10:00:19.374Z,31.65
2023-02-16T10:01:19.422Z,31.66
2023-02-16T10:02:19.503Z,31.65
2023-02-16T10:03:19.537Z,31.63
2023-02-16T10:04:19.536Z,31.64
2023-02-16T10:05:19.650Z,31.65
2023-02-16T10:06:19.612Z,31.65
2023-02-16T10:07:19.646Z,31.65
2023-02-16T10:08:19.690Z,31.63
2023-02-16T10:09:18.741Z,31.62
2023-02-16T10:10:19.812Z,31.65
2023-02-16T10:11:19.804Z,31.63
2023-02-16T10:12:19.855Z,31.67
2023-02-16T10:13:19.950Z,31.67
2023-02-16T10:14:19.928Z,31.66
2023-02-16T10:15:20.007Z,31.66
2023-02-16T10:16:20.034Z,31.64
2023-02-16T10:17:20.065Z,31.65
2023-02-16T10:18:20.107Z,31.65
2023-02-16T10:19:19.137Z,31.65
2023-02-16T10:20:20.236Z,31.63
2023-02-16T10:21:20.281Z,31.62
2023-02-16T10:22:20.309Z,31.64
2023-02-16T10:23:19.381Z,31.62
2023-02-16T10:24:19.381Z,31.63
2023-02-16T10:25:20.407Z,31.62
2023-02-16T10:26:20.491Z,31.63
2023-02-16T10:27:20.459Z,31.62
2023-02-16T10:28:22.701Z,31.64
2023-02-16T10:29:20.504Z,31.64
2023-02-16T10:30:20.634Z,31.61
2023-02-16T10:31:20.627Z,31.63
2023-02-16T10:32:19.517Z,31.64
2023-02-16T10:33:20.499Z,31.64
2023-02-16T10:34:21.372Z,31.60
2023-02-16T10:35:19.454Z,31.56
2023-02-16T10:36:20.460Z,31.52
2023-02-16T10:37:19.470Z,31.49
2023-02-16T10:38:20.491Z,31.42
2023-02-16T10:39:20.481Z,31.32
2023-02-16T10:40:23.135Z,31.35
2023-02-16T10:41:20.457Z,31.35
2023-02-16T10:42:20.433Z,31.34
2023-02-16T10:43:19.404Z,31.30
2023-02-16T10:44:19.404Z,31.28
2023-02-16T10:45:20.389Z,31.27
2023-02-16T10:46:19.451Z,31.26
2023-02-16T10:47:19.397Z,31.24
2023-02-16T10:48:20.370Z,31.20
2023-02-16T10:49:19.379Z,31.18
2023-02-16T10:50:20.374Z,31.13
2023-02-16T10:51:20.352Z,31.13
2023-02-16T10:52:20.359Z,31.09
2023-02-16T10:53:20.368Z,31.10
2023-02-16T10:54:20.393Z,31.07
2023-02-16T10:55:20.729Z,31.05
2023-02-16T10:56:20.324Z,31.04
2023-02-16T10:57:19.498Z,31.02
2023-02-16T10:58:20.754Z,31.01
2023-02-16T10:59:19.467Z,30.99
2023-02-16T11:00:20.295Z,30.98
2023-02-16T11:01:20.351Z,30.96
2023-02-16T11:02:20.292Z,30.94
2023-02-16T11:03:20.279Z,30.93
2023-02-16T11:04:22.842Z,30.92
2023-02-16T11:05:20.270Z,30.94
2023-02-16T11:06:20.257Z,30.90
2023-02-16T11:07:20.290Z,30.89
2023-02-16T11:08:20.246Z,30.87
2023-02-16T11:09:20.263Z,30.85
2023-02-16T11:10:19.232Z,30.85
2023-02-16T11:11:19.220Z,30.83
2023-02-16T11:12:20.229Z,30.81
2023-02-16T11:13:20.229Z,30.80
2023-02-16T11:14:20.209Z,30.79
2023-02-16T11:15:20.193Z,30.77
2023-02-16T11:16:19.318Z,30.75
2023-02-16T11:17:20.177Z,30.75
2023-02-16T11:18:20.156Z,30.75
2023-02-16T11:19:20.151Z,30.73
2023-02-16T11:20:19.149Z,30.73
2023-02-16T11:21:19.144Z,30.73
2023-02-16T11:22:19.144Z,30.69
2023-02-16T11:23:20.137Z,30.69
2023-02-16T11:24:20.121Z,30.68
2023-02-16T11:25:20.202Z,30.67
2023-02-16T11:26:19.123Z,30.69
2023-02-16T11:27:20.127Z,30.66
2023-02-16T11:28:20.115Z,30.64
2023-02-16T11:29:20.088Z,30.64
2023-02-16T11:30:20.158Z,30.61
2023-02-16T11:31:19.251Z,30.59
2023-02-16T11:32:20.071Z,30.60
2023-02-16T11:33:20.066Z,30.60
2023-02-16T11:34:20.059Z,30.60
2023-02-16T11:35:20.058Z,30.58
2023-02-16T11:36:20.168Z,30.55
2023-02-16T11:37:19.054Z,30.59
2023-02-16T11:38:20.034Z,30.58
2023-02-16T11:39:20.046Z,30.54
2023-02-16T11:40:20.039Z,30.55
2023-02-16T11:41:19.043Z,30.51
2023-02-16T11:42:20.020Z,30.53
2023-02-16T11:43:20.017Z,30.50
2023-02-16T11:44:20.044Z,30.48
2023-02-16T11:45:20.120Z,30.47
2023-02-16T11:46:19.199Z,30.48
2023-02-16T11:47:20.158Z,30.44
2023-02-16T11:48:19.212Z,30.46
2023-02-16T11:49:20.241Z,30.44
2023-02-16T11:50:20.321Z,30.41
2023-02-16T11:51:20.376Z,30.45
2023-02-16T11:52:20.375Z,30.43
2023-02-16T11:53:20.408Z,30.42
2023-02-16T11:54:19.452Z,30.43
2023-02-16T11:55:20.489Z,30.44
2023-02-16T11:56:20.580Z,30.43
2023-02-16T11:57:20.566Z,30.41
2023-02-16T11:58:19.602Z,30.40
2023-02-16T11:59:20.617Z,30.41
2023-02-16T12:00:20.639Z,30.41
2023-02-16T12:01:19.691Z,30.42
2023-02-16T12:02:20.715Z,30.40
2023-02-16T12:03:20.754Z,30.39
2023-02-16T12:04:19.765Z,30.40
2023-02-16T12:05:20.857Z,30.36
2023-02-16T12:06:20.816Z,30.38
2023-02-16T12:07:20.845Z,30.37
2023-02-16T12:08:20.879Z,30.31
2023-02-16T12:09:20.902Z,30.34
2023-02-16T12:10:20.907Z,30.34
2023-02-16T12:11:20.890Z,30.35
2023-02-16T12:12:20.966Z,30.33
2023-02-16T12:13:20.916Z,30.34
2023-02-16T12:14:21.074Z,30.35
2023-02-16T12:15:20.949Z,30.32
2023-02-16T12:16:20.967Z,30.31
2023-02-16T12:17:20.944Z,30.29
2023-02-16T12:18:20.938Z,30.31
2023-02-16T12:19:19.943Z,30.32
2023-02-16T12:20:20.938Z,30.31
2023-02-16T12:21:20.943Z,30.31
2023-02-16T12:22:20.951Z,30.31
2023-02-16T12:23:19.952Z,30.30
2023-02-16T12:24:20.913Z,30.29
2023-02-16T12:25:20.921Z,30.30
2023-02-16T12:26:20.928Z,30.27
2023-02-16T12:27:20.933Z,30.26
2023-02-16T12:28:20.963Z,30.28
2023-02-16T12:29:20.950Z,30.28
2023-02-16T12:30:21.114Z,30.28
2023-02-16T12:31:21.153Z,30.26
2023-02-16T12:32:19.966Z,30.28
2023-02-16T12:33:19.990Z,30.26
2023-02-16T12:34:21.034Z,30.26
2023-02-16T12:35:20.985Z,30.27
2023-02-16T12:36:20.976Z,30.28
2023-02-16T12:37:19.983Z,30.28
2023-02-16T12:38:20.005Z,30.31
2023-02-16T12:39:21.006Z,30.28
2023-02-16T12:40:20.996Z,30.27
2023-02-16T12:41:21.021Z,30.29
2023-02-16T12:42:21.010Z,30.29
2023-02-16T12:43:21.005Z,30.29
2023-02-16T12:44:21.042Z,30.27
2023-02-16T12:45:21.020Z,30.29
2023-02-16T12:46:23.017Z,30.27
2023-02-16T12:47:21.042Z,30.27
2023-02-16T12:48:21.035Z,30.25
2023-02-16T12:49:20.018Z,30.29
2023-02-16T12:50:20.993Z,30.25
2023-02-16T12:51:20.989Z,30.30
2023-02-16T12:52:21.047Z,30.27